SV1LH-1 Melissia GR current weather conditions

sailwx.info

Wind from 045 at 5 knots gusting 7

Air temperature 16.7° C
Dewpoint 1.5° C

Last reported at 2016-Sep-28 17:49 UTC.
Time now 2016-Sep-28 18:45 UTC

Location: N 38°03' E 023°51'.
View on Google Maps.

See reports from other nearby stations

  
Tides and Currents Weather Stations Pressure Air Temp Water Temp Dewpoint Dewpoint Depression Visibility Wind Speed Wind Dir Waves Ship Positions
date/time (UTC)wind fromknots sea level pressurealtimeterstation pressurevisibilityair tempwater tempwave heightnotes
2016-Sep-28 17:49 045 5 gusting 7 16.7
2016-Sep-28 17:44 022 5 gusting 9 16.7
2016-Sep-28 17:39 16.7
2016-Sep-28 17:34 045 6 gusting 10 16.7
2016-Sep-28 17:29 022 6 gusting 9 16.7
2016-Sep-28 17:24 16.7
2016-Sep-28 17:19 045 6 gusting 10 16.7
2016-Sep-28 17:14 16.7
2016-Sep-28 17:09 16.7
2016-Sep-28 17:04 16.7
2016-Sep-28 16:59 17.2
2016-Sep-28 16:54 17.2
2016-Sep-28 16:49 045 6 gusting 10 17.2
2016-Sep-28 16:44 17.2
2016-Sep-28 16:39 17.2
2016-Sep-28 16:34 17.2
2016-Sep-28 16:29 17.2
2016-Sep-28 16:24 067 3 gusting 5 17.2
2016-Sep-28 16:19 067 3 gusting 7 17.2
2016-Sep-28 16:14 045 1 gusting 3 17.2
2016-Sep-28 16:09 17.2
2016-Sep-28 16:04 135 6 gusting 9 17.2
2016-Sep-28 15:59 045 1 gusting 3 17.8
2016-Sep-28 15:54 17.8
2016-Sep-28 15:49 17.8
2016-Sep-28 15:44 045 4 gusting 8 17.8
2016-Sep-28 15:39 045 6 gusting 7 18.3
2016-Sep-28 15:34 022 6 gusting 8 18.3
2016-Sep-28 15:29 157 2 gusting 4 18.3
2016-Sep-28 15:24 045 6 gusting 11 18.9
2016-Sep-28 15:19 045 8 gusting 12 18.9
2016-Sep-28 15:14 067 4 gusting 8 18.9
2016-Sep-28 15:09 022 3 gusting 8 19.4
2016-Sep-28 15:04 045 4 gusting 6 19.4
2016-Sep-28 14:59 022 6 gusting 11 19.4
2016-Sep-28 14:54 045 4 gusting 8 19.4
2016-Sep-28 14:49 315 9 gusting 13 20.0
2016-Sep-28 14:44 022 6 gusting 11 20.6
2016-Sep-28 14:39 21.1
2016-Sep-28 14:34 022 3 gusting 6 21.7
2016-Sep-28 14:29 090 6 gusting 11 21.7
2016-Sep-28 14:24 112 5 gusting 8 21.7
2016-Sep-28 14:19 045 3 gusting 7 21.7
2016-Sep-28 14:14 337 7 gusting 12 21.7
2016-Sep-28 14:09 045 4 gusting 7 21.7
2016-Sep-28 14:04 045 5 gusting 8 21.7
2016-Sep-28 13:59 112 8 gusting 14 21.7
2016-Sep-28 13:54 022 9 gusting 13 22.2
2016-Sep-28 13:49 337 6 gusting 13 22.2
2016-Sep-28 13:44 22.2
2016-Sep-28 13:39 090 6 gusting 9 22.2
2016-Sep-28 13:34 045 8 gusting 12 22.2
2016-Sep-28 13:29 045 6 gusting 9 22.2
2016-Sep-28 13:24 22.2
2016-Sep-28 13:19 022 7 gusting 13 22.2
2016-Sep-28 13:14 22.8
2016-Sep-28 13:09 090 6 gusting 7 22.2
2016-Sep-28 13:04 337 7 gusting 12 22.8
2016-Sep-28 12:59 090 7 gusting 12 22.8
2016-Sep-28 12:54 022 6 gusting 9 22.8
2016-Sep-28 12:49 22.8
2016-Sep-28 12:44 315 7 gusting 11 22.8
2016-Sep-28 12:39 337 6 gusting 9 22.8
2016-Sep-28 12:34 045 6 gusting 13 22.8
2016-Sep-28 12:29 022 9 gusting 13 22.8
2016-Sep-28 12:24 022 13 gusting 17 22.8
2016-Sep-28 12:19 112 7 gusting 11 23.3
2016-Sep-28 12:14 315 4 gusting 7 22.8
2016-Sep-28 12:09 315 10 gusting 15 22.8
2016-Sep-28 12:04 22.8
2016-Sep-28 11:59 045 5 gusting 9 22.8
2016-Sep-28 11:54 045 10 gusting 18 22.8
2016-Sep-28 11:49 045 13 gusting 18 22.8
2016-Sep-28 11:44 270 12 gusting 23 22.8
2016-Sep-28 11:39 045 10 gusting 15 22.8
2016-Sep-28 11:34 045 10 gusting 21 23.3
2016-Sep-28 11:29 315 7 gusting 11 23.3
2016-Sep-28 11:24 067 7 gusting 13 23.3
2016-Sep-28 11:19 23.3
2016-Sep-28 11:14 045 8 gusting 18 23.3
2016-Sep-28 11:09 045 6 gusting 12 23.3
2016-Sep-28 11:04 23.3
2016-Sep-28 10:59 23.3
2016-Sep-28 10:54 045 6 gusting 10 23.3
2016-Sep-28 10:49 067 4 gusting 8 23.3
2016-Sep-28 10:44 022 9 gusting 15 23.9
2016-Sep-28 10:39 022 4 gusting 7 23.9
2016-Sep-28 10:34 022 6 gusting 11 23.3
2016-Sep-28 10:29 23.3
2016-Sep-28 10:24 292 6 gusting 9 23.3
2016-Sep-28 10:19 022 8 gusting 16 23.9
2016-Sep-28 10:14 23.3
2016-Sep-28 10:09 22.8
2016-Sep-28 10:04 045 7 gusting 13 22.2
2016-Sep-28 09:59 022 6 gusting 13 22.2
2016-Sep-28 09:54 292 6 gusting 13 22.2
2016-Sep-28 09:49 22.2
2016-Sep-28 09:44 045 10 gusting 14 23.3
2016-Sep-28 09:39 022 4 gusting 8 23.3
2016-Sep-28 09:34 045 6 gusting 11 23.3
2016-Sep-28 09:29 022 3 gusting 7 23.3
2016-Sep-28 09:24 23.3
2016-Sep-28 09:19 045 4 gusting 9 23.9
2016-Sep-28 09:14 045 4 gusting 6 23.9
2016-Sep-28 09:09 337 3 gusting 6 23.3
2016-Sep-28 09:04 067 6 gusting 13 22.8
2016-Sep-28 08:59 067 6 gusting 10 22.8
2016-Sep-28 08:54 022 5 gusting 7 22.8
2016-Sep-28 08:49 045 4 gusting 10 22.8
2016-Sep-28 08:44 090 6 gusting 11 22.8
2016-Sep-28 08:39 045 5 gusting 9 22.2
2016-Sep-28 08:34 067 7 gusting 13 22.2
2016-Sep-28 08:29 022 5 gusting 7 22.2
2016-Sep-28 08:24 067 7 gusting 12 22.2
2016-Sep-28 08:19 22.2
2016-Sep-28 08:14 21.7
2016-Sep-28 08:09 045 6 gusting 8 21.7
2016-Sep-28 08:04 180 3 gusting 9 21.7
2016-Sep-28 07:59 21.7
2016-Sep-28 07:54 022 4 gusting 8 21.7
2016-Sep-28 07:49 045 4 gusting 6 21.7
2016-Sep-28 07:44 112 3 gusting 5 21.1
2016-Sep-28 07:39 21.7
2016-Sep-28 07:34 22.2
2016-Sep-28 07:29 315 2 gusting 8 22.2
2016-Sep-28 07:24 067 2 gusting 4 21.7
2016-Sep-28 07:19 21.1
2016-Sep-28 07:14 21.1
2016-Sep-28 07:09 157 1 gusting 3 20.6
2016-Sep-28 07:04 292 6 gusting 9 20.6
2016-Sep-28 06:59 20.6
2016-Sep-28 06:54 090 3 gusting 6 20.6
2016-Sep-28 06:49 315 1 gusting 4 20.6
2016-Sep-28 06:44 045 8 gusting 15 20.0
2016-Sep-28 06:39 337 6 gusting 10 20.0
2016-Sep-28 06:34 022 3 gusting 6 20.0
2016-Sep-28 06:29 045 6 gusting 10 19.4
2016-Sep-28 06:24 090 6 gusting 10 18.9
2016-Sep-28 06:19 067 7 gusting 12 18.9
2016-Sep-28 06:14 337 5 gusting 12 18.9
2016-Sep-28 06:09 090 5 gusting 6 18.9
2016-Sep-28 06:04 022 6 gusting 14 18.3
2016-Sep-28 05:59 135 7 gusting 15 18.3
2016-Sep-28 05:54 045 7 gusting 13 18.3
2016-Sep-28 05:49 090 4 gusting 10 18.3
2016-Sep-28 05:44 045 6 gusting 10 17.8
2016-Sep-28 05:39 090 4 gusting 11 17.8
2016-Sep-28 05:34 090 5 gusting 8 17.2
2016-Sep-28 05:29 045 8 gusting 14 17.2
2016-Sep-28 05:24 090 5 gusting 13 17.2
2016-Sep-28 05:19 067 7 gusting 18 16.7
2016-Sep-28 05:14 225 5 gusting 9 16.7
2016-Sep-28 05:09 067 7 gusting 11 16.1
2016-Sep-28 05:04 067 4 gusting 8 16.1
2016-Sep-28 04:59 15.6
2016-Sep-28 04:54 022 8 gusting 13 15.6
2016-Sep-28 04:49 045 7 gusting 11 15.0
2016-Sep-28 04:44 022 6 gusting 8 14.4
2016-Sep-28 04:39 067 3 gusting 5 14.4
2016-Sep-28 04:34 045 6 gusting 10 14.4
2016-Sep-28 04:29 067 5 gusting 8 14.4
2016-Sep-28 04:24 045 3 gusting 9 13.9
2016-Sep-28 04:19 067 6 gusting 9 13.9
2016-Sep-28 04:14 180 1 gusting 3 13.9
2016-Sep-28 04:09 157 5 gusting 9 13.9
2016-Sep-28 04:04 090 0 gusting 1 13.9
2016-Sep-28 03:59 022 1 gusting 3 14.4
2016-Sep-28 03:54 022 6 gusting 9 14.4
2016-Sep-28 03:49 14.4
2016-Sep-28 03:44 022 1 gusting 5 14.4
2016-Sep-28 03:39 022 6 gusting 12 14.4
2016-Sep-28 03:34 090 4 gusting 6 13.9
2016-Sep-28 03:29 13.9
2016-Sep-28 03:24 090 3 gusting 6 13.9
2016-Sep-28 03:19 337 1 gusting 3 14.4
2016-Sep-28 03:14 045 5 gusting 10 14.4
2016-Sep-28 03:09 315 2 gusting 4 14.4
2016-Sep-28 03:04 14.4
2016-Sep-28 02:59 337 5 gusting 6 14.4
2016-Sep-28 02:54 045 6 gusting 8 14.4
2016-Sep-28 02:49 337 3 gusting 6 14.4
2016-Sep-28 02:44 14.4
2016-Sep-28 02:39 14.4
2016-Sep-28 02:34 045 6 gusting 12 14.4
2016-Sep-28 02:29 15.0
2016-Sep-28 02:24 022 6 gusting 13 14.4
2016-Sep-28 02:19 022 6 gusting 14 14.4
2016-Sep-28 02:14 045 6 gusting 10 14.4
2016-Sep-28 02:09 112 4 gusting 6 14.4
2016-Sep-28 02:04 292 3 gusting 8 14.4
2016-Sep-28 01:59 045 4 gusting 12 14.4
2016-Sep-28 01:54 090 1 gusting 4 15.0
2016-Sep-28 01:49 090 7 gusting 19 15.0
2016-Sep-28 01:44 045 6 gusting 13 15.0
2016-Sep-28 01:39 337 6 gusting 12 15.0
2016-Sep-28 01:34 15.0
2016-Sep-28 01:29 045 5 gusting 11 15.0
2016-Sep-28 01:24 045 3 gusting 6 15.0
2016-Sep-28 01:19 157 4 gusting 7 15.0
2016-Sep-28 01:14 247 1 gusting 2 14.4
2016-Sep-28 01:09 022 3 gusting 6 14.4
2016-Sep-28 01:04 067 4 gusting 6 14.4
2016-Sep-28 00:59 112 1 gusting 3 14.4
2016-Sep-28 00:54 14.4
2016-Sep-28 00:49 180 0 gusting 1 14.4
2016-Sep-28 00:44 14.4
2016-Sep-28 00:39 202 1 gusting 3 14.4
2016-Sep-28 00:34 045 1 gusting 3 14.4
2016-Sep-28 00:29 157 1 gusting 2 14.4
2016-Sep-28 00:24 14.4
2016-Sep-28 00:19 270 1 gusting 1 14.4
2016-Sep-28 00:14 270 2 gusting 4 14.4
2016-Sep-28 00:09 247 2 gusting 2 14.4
2016-Sep-28 00:04 270 2 gusting 4 14.4
2016-Sep-27 23:59 022 2 gusting 4 14.4
2016-Sep-27 23:54 315 0 gusting 1 14.4
2016-Sep-27 23:49 337 2 gusting 4 14.4
2016-Sep-27 23:44 292 2 gusting 5 14.4
2016-Sep-27 23:39 292 0 gusting 2 14.4
2016-Sep-27 23:34 315 3 gusting 5 14.4
2016-Sep-27 23:29 292 2 gusting 3 15.0
2016-Sep-27 23:24 270 1 gusting 3 15.0
2016-Sep-27 23:19 270 1 gusting 3 15.0
2016-Sep-27 23:14 315 2 gusting 3 15.0
2016-Sep-27 23:09 15.6
2016-Sep-27 23:04 315 3 gusting 5 15.6
2016-Sep-27 22:59 022 1 gusting 3 15.6
2016-Sep-27 22:54 112 2 gusting 3 15.0
2016-Sep-27 22:49 270 1 gusting 2 15.0
2016-Sep-27 22:44 022 1 gusting 4 15.0
2016-Sep-27 22:39 337 2 gusting 3 15.0
2016-Sep-27 22:34 225 0 gusting 1 15.0
2016-Sep-27 22:29 180 0 gusting 2 15.0
2016-Sep-27 22:24 157 1 gusting 1 15.0
2016-Sep-27 22:19 045 1 gusting 3 14.4
2016-Sep-27 22:14 292 3 gusting 4 14.4
2016-Sep-27 22:09 270 3 gusting 4 14.4
2016-Sep-27 22:04 090 1 gusting 1 15.0
2016-Sep-27 21:59 247 2 gusting 3 15.0
2016-Sep-27 21:54 337 4 gusting 6 14.4
2016-Sep-27 21:49 045 1 gusting 3 14.4
2016-Sep-27 21:44 180 1 gusting 2 14.4
2016-Sep-27 21:39 180 2 gusting 3 14.4
2016-Sep-27 21:34 14.4
2016-Sep-27 21:29 180 14.4
2016-Sep-27 21:24 15.0
2016-Sep-27 21:19 337 0 gusting 1 15.0
2016-Sep-27 21:14 225 0 gusting 1 15.0
2016-Sep-27 21:09 270 2 gusting 3 15.6
2016-Sep-27 21:04 112 1 gusting 3 15.6
2016-Sep-27 20:59 292 2 gusting 5 15.6
2016-Sep-27 20:54 090 7 gusting 13 15.6
2016-Sep-27 20:49 292 6 gusting 8 15.6
2016-Sep-27 20:44 315 2 gusting 4 15.6
2016-Sep-27 20:39 022 5 gusting 8 15.6
2016-Sep-27 20:34 022 2 gusting 7 15.6
2016-Sep-27 20:29 045 6 gusting 13 15.6
2016-Sep-27 20:24 112 5 gusting 7 15.6
2016-Sep-27 20:19 045 3 gusting 7 15.6
2016-Sep-27 20:14 090 7 gusting 11 15.6
2016-Sep-27 20:09 045 6 gusting 9 15.6
2016-Sep-27 20:04 15.6
2016-Sep-27 19:59 315 3 gusting 5 15.6
2016-Sep-27 19:54 337 2 gusting 5 15.6
2016-Sep-27 19:49 337 5 gusting 8 15.6
2016-Sep-27 19:44 112 3 gusting 5 15.0
2016-Sep-27 19:39 15.0
2016-Sep-27 19:34 292 1 gusting 4 15.0
2016-Sep-27 19:29 15.6
2016-Sep-27 19:24 045 4 gusting 6 15.6
2016-Sep-27 19:19 15.6
2016-Sep-27 19:14 045 1 gusting 1 15.6
2016-Sep-27 19:09 090 2 gusting 3 15.6
2016-Sep-27 19:04 090 2 gusting 5 15.6
2016-Sep-27 18:59 067 4 gusting 6 15.6
2016-Sep-27 18:54 315 1 gusting 3 15.6
2016-Sep-27 18:49 045 4 gusting 6 15.6
2016-Sep-27 18:44 022 4 gusting 7 15.6
2016-Sep-27 18:39 15.6
2016-Sep-27 18:34 045 3 gusting 8 15.6
2016-Sep-27 18:29 022 2 gusting 4 15.6
2016-Sep-27 18:24 045 4 gusting 6 15.6
2016-Sep-27 18:19 067 3 gusting 7 15.6
2016-Sep-27 18:14 022 2 gusting 6 15.6
2016-Sep-27 18:09 15.6
2016-Sep-27 18:04 022 2 gusting 4 15.6
2016-Sep-27 17:59 15.6
2016-Sep-27 17:54 15.6
2016-Sep-27 17:49 15.6
2016-Sep-27 17:44 045 7 gusting 11 15.6
2016-Sep-27 17:39 15.6
2016-Sep-27 17:34 15.6
2016-Sep-27 17:29 16.1
2016-Sep-27 17:24 16.1
2016-Sep-27 17:19 16.1
2016-Sep-27 17:14 16.1
2016-Sep-27 17:09 045 5 gusting 6 16.1
2016-Sep-27 17:04 022 6 gusting 13 16.1
2016-Sep-27 16:59 045 5 gusting 11 16.1
2016-Sep-27 16:54 16.1
2016-Sep-27 16:49 045 6 gusting 8 16.1
2016-Sep-27 16:44 16.1
2016-Sep-27 16:39 16.7
2016-Sep-27 16:34 022 7 gusting 13 16.7
2016-Sep-27 16:29 067 8 gusting 13 16.7
2016-Sep-27 16:24 16.7
2016-Sep-27 16:19 022 6 gusting 12 16.7
2016-Sep-27 16:14 16.7
2016-Sep-27 16:09 045 4 gusting 7 16.7
2016-Sep-27 16:04 16.7
2016-Sep-27 15:59 045 6 gusting 8 16.7
2016-Sep-27 15:54 090 4 gusting 6 17.2
2016-Sep-27 15:49 022 4 gusting 7 17.2
2016-Sep-27 15:44 315 3 gusting 6 17.2
2016-Sep-27 15:39 090 4 gusting 6 17.8
2016-Sep-27 15:34 337 1 gusting 4 17.8
2016-Sep-27 15:29 315 1 gusting 3 17.8
2016-Sep-27 15:24 337 3 gusting 4 18.3
2016-Sep-27 15:19 18.9
2016-Sep-27 15:14 045 5 gusting 6 18.9
2016-Sep-27 15:09 045 3 gusting 5 19.4
2016-Sep-27 15:04 022 3 gusting 4 19.4
2016-Sep-27 14:59 270 4 gusting 6 20.0
2016-Sep-27 14:54 022 4 gusting 6 20.6
2016-Sep-27 14:49 022 5 gusting 6 20.6
2016-Sep-27 14:44 067 5 gusting 8 20.6
2016-Sep-27 14:39 337 4 gusting 9 20.6
2016-Sep-27 14:34 022 2 gusting 6 21.1
2016-Sep-27 14:29 045 4 gusting 7 21.7
2016-Sep-27 14:24 045 2 gusting 4 21.7
2016-Sep-27 14:19 067 2 gusting 6 21.7
2016-Sep-27 14:14 022 1 gusting 3 21.1
2016-Sep-27 14:09 045 2 gusting 3 20.6
2016-Sep-27 14:04 022 3 gusting 7 19.4
2016-Sep-27 13:59 022 1 gusting 3 19.4
2016-Sep-27 13:54 18.9
2016-Sep-27 13:49 19.4
2016-Sep-27 13:44 067 3 gusting 6 19.4
2016-Sep-27 13:39 067 1 gusting 3 19.4
2016-Sep-27 13:34 225 3 gusting 5 19.4
2016-Sep-27 13:29 022 6 gusting 8 19.4
2016-Sep-27 13:24 067 4 gusting 6 19.4
2016-Sep-27 13:19 022 6 gusting 9 19.4
2016-Sep-27 13:14 022 5 gusting 6 18.9
2016-Sep-27 13:09 022 6 gusting 9 18.9
2016-Sep-27 13:04 067 4 gusting 6 18.9
2016-Sep-27 12:59 18.9
2016-Sep-27 12:54 022 6 gusting 10 19.4
2016-Sep-27 12:49 022 9 gusting 13 19.4
2016-Sep-27 12:44 045 8 gusting 12 20.0
2016-Sep-27 12:39 045 6 gusting 9 20.0
2016-Sep-27 12:34 067 9 gusting 13 20.6
2016-Sep-27 12:29 045 4 gusting 6 20.6
2016-Sep-27 12:24 20.6
2016-Sep-27 12:19 20.6
2016-Sep-27 12:14 20.6
2016-Sep-27 12:09 067 3 gusting 6 21.1
2016-Sep-27 12:04 045 6 gusting 9 21.7
2016-Sep-27 11:59 157 4 gusting 10 22.8
2016-Sep-27 11:54 067 5 gusting 10 23.9
2016-Sep-27 11:49 067 3 gusting 5 23.9
2016-Sep-27 11:44 23.9
2016-Sep-27 11:39 24.4
2016-Sep-27 11:34 090 2 gusting 6 24.4
2016-Sep-27 11:29 24.4
2016-Sep-27 11:24 045 2 gusting 5 25.0
2016-Sep-27 11:19 022 3 gusting 6 25.6
2016-Sep-27 11:14 090 2 gusting 4 23.9
2016-Sep-27 11:09 247 5 gusting 12 23.3
2016-Sep-27 11:04 067 3 gusting 4 23.3
2016-Sep-27 10:59 23.9
2016-Sep-27 10:54 090 6 gusting 10 23.3
2016-Sep-27 10:49 247 4 gusting 7 22.8
2016-Sep-27 10:44 045 6 gusting 11 22.2
2016-Sep-27 10:39 022 6 gusting 12 22.8
2016-Sep-27 10:34 23.3
2016-Sep-27 10:29 067 6 gusting 10 24.4
2016-Sep-27 10:24 045 3 gusting 5 23.9
2016-Sep-27 10:19 202 2 gusting 5 23.9
2016-Sep-27 10:14 045 3 gusting 8 25.0
2016-Sep-27 10:09 225 2 gusting 4 23.9
2016-Sep-27 10:04 022 5 gusting 14 23.9
2016-Sep-27 09:59 022 9 gusting 13 23.3
2016-Sep-27 09:54 225 1 gusting 4 22.8
2016-Sep-27 09:49 22.2
2016-Sep-27 09:44 21.7
2016-Sep-27 09:39 090 3 gusting 6 22.2
2016-Sep-27 09:34 270 4 gusting 9 22.8
2016-Sep-27 09:29 270 4 gusting 7 22.2
2016-Sep-27 09:24 045 5 gusting 9 21.1
2016-Sep-27 09:19 090 5 gusting 9 21.1
2016-Sep-27 09:14 045 6 gusting 12 20.6
2016-Sep-27 09:09 292 3 gusting 5 20.6
2016-Sep-27 09:04 045 2 gusting 6 20.6
2016-Sep-27 08:59 090 3 gusting 6 20.6
2016-Sep-27 08:54 090 1 gusting 3 20.0
2016-Sep-27 08:49 270 2 gusting 4 20.0
2016-Sep-27 08:44 045 4 gusting 7 20.0
2016-Sep-27 08:39 112 6 gusting 11 20.0
2016-Sep-27 08:34 067 3 gusting 5 20.0
2016-Sep-27 08:29 20.6
2016-Sep-27 08:24 022 1 gusting 2 20.0
2016-Sep-27 08:19 135 4 gusting 6 19.4
2016-Sep-27 08:14 180 2 gusting 4 19.4
2016-Sep-27 08:09 337 6 gusting 9 19.4
2016-Sep-27 08:04 090 5 gusting 8 19.4
2016-Sep-27 07:59 225 5 gusting 8 19.4
2016-Sep-27 07:54 315 2 gusting 5 18.9
2016-Sep-27 07:49 067 5 gusting 6 18.9
2016-Sep-27 07:44 315 2 gusting 3 18.9
2016-Sep-27 07:39 112 0 gusting 0 18.3
2016-Sep-27 07:34 022 3 gusting 8 18.3
2016-Sep-27 07:29 18.3
2016-Sep-27 07:24 18.3
2016-Sep-27 07:19 315 4 gusting 6 18.3
2016-Sep-27 07:14 270 1 gusting 3 18.3
2016-Sep-27 07:09 022 1 gusting 2 18.3
2016-Sep-27 07:04 045 6 gusting 13 18.3
2016-Sep-27 06:59 022 6 gusting 10 17.8
2016-Sep-27 06:54 045 7 gusting 13 17.8
2016-Sep-27 06:49 045 6 gusting 9 17.8
2016-Sep-27 06:44 022 7 gusting 12 17.8
2016-Sep-27 06:39 18.3
2016-Sep-27 06:34 17.8
2016-Sep-27 06:29 022 4 gusting 6 17.8
2016-Sep-27 06:24 022 6 gusting 8 17.2
2016-Sep-27 06:19 022 5 gusting 9 17.2
2016-Sep-27 06:14 337 6 gusting 9 17.2
2016-Sep-27 06:09 022 3 gusting 6 17.8
2016-Sep-27 06:04 17.8
2016-Sep-27 05:59 17.8
2016-Sep-27 05:54 315 0 gusting 2 17.8
2016-Sep-27 05:49 17.2
2016-Sep-27 05:44 045 0 gusting 1 17.2
2016-Sep-27 05:39 067 3 gusting 7 17.2
2016-Sep-27 05:34 16.1
2016-Sep-27 05:29 315 5 gusting 7 16.1
2016-Sep-27 05:24 16.1
2016-Sep-27 05:19 15.6
2016-Sep-27 05:14 15.6
2016-Sep-27 05:09 15.6
2016-Sep-27 05:04 270 1 gusting 3 15.6
2016-Sep-27 04:59 067 0 gusting 1 15.6
2016-Sep-27 04:54 022 2 gusting 3 15.6
2016-Sep-27 04:49 112 2 gusting 3 15.6
2016-Sep-27 04:44 15.0
2016-Sep-27 04:39 15.0
2016-Sep-27 04:34 15.0
2016-Sep-27 04:29 022 3 gusting 4 14.4
2016-Sep-27 04:24 112 3 gusting 6 14.4
2016-Sep-27 04:19 202 14.4
2016-Sep-27 04:14 112 0 gusting 1 14.4
2016-Sep-27 04:09 067 1 gusting 2 15.0
2016-Sep-27 04:04 15.0
2016-Sep-27 03:59 15.0
2016-Sep-27 03:54 045 2 gusting 5 15.0
2016-Sep-27 03:49 022 1 gusting 2 15.0
2016-Sep-27 03:44 045 0 gusting 1 15.0
2016-Sep-27 03:39 157 4 gusting 7 15.0
2016-Sep-27 03:34 045 2 gusting 5 15.0
2016-Sep-27 03:29 045 1 gusting 5 15.0
2016-Sep-27 03:24 15.0
2016-Sep-27 03:19 045 2 gusting 3 15.0
2016-Sep-27 03:14 045 3 gusting 6 15.0
2016-Sep-27 03:09 270 1 gusting 3 15.0
2016-Sep-27 03:04 112 0 gusting 1 15.0
2016-Sep-27 02:59 090 1 gusting 3 15.0
2016-Sep-27 02:54 15.0
2016-Sep-27 02:49 045 5 gusting 6 15.0
2016-Sep-27 02:44 045 3 gusting 5 15.0
2016-Sep-27 02:39 15.0
2016-Sep-27 02:34 090 2 gusting 3 15.0
2016-Sep-27 02:29 045 1 gusting 2 15.0
2016-Sep-27 02:24 045 3 gusting 4 15.0
2016-Sep-27 02:19 15.0
2016-Sep-27 02:14 15.0
2016-Sep-27 02:09 022 3 gusting 5 15.0
2016-Sep-27 02:04 022 3 gusting 5 15.0
2016-Sep-27 01:59 045 2 gusting 3 15.0
2016-Sep-27 01:54 045 1 gusting 3 15.0
2016-Sep-27 01:49 15.0
2016-Sep-27 01:44 045 1 gusting 3 15.0
2016-Sep-27 01:39 022 4 gusting 6 15.0
2016-Sep-27 01:34 022 2 gusting 5 15.0
2016-Sep-27 01:29 337 0 gusting 1 15.0
2016-Sep-27 01:24 045 0 gusting 1 15.0
2016-Sep-27 01:19 045 3 gusting 4 15.0
2016-Sep-27 01:14 15.0
2016-Sep-27 01:09 045 1 gusting 4 15.0
2016-Sep-27 01:04 022 1 gusting 3 15.0
2016-Sep-27 00:59 090 0 gusting 1 15.0
2016-Sep-27 00:54 315 1 gusting 3 15.0
2016-Sep-27 00:49 022 1 gusting 4 15.0
2016-Sep-27 00:44 067 1 gusting 3 15.6
2016-Sep-27 00:39 090 3 gusting 6 15.6
2016-Sep-27 00:34 067 4 gusting 8 15.6
2016-Sep-27 00:29 022 2 gusting 3 15.6
2016-Sep-27 00:24 045 2 gusting 7 15.0
2016-Sep-27 00:19 045 3 gusting 6 15.6
2016-Sep-27 00:14 045 1 gusting 5 15.6
2016-Sep-27 00:09 045 3 gusting 4 15.6
2016-Sep-27 00:04 045 5 gusting 7 15.6
2016-Sep-26 23:59 337 4 gusting 6 15.6
2016-Sep-26 23:54 045 2 gusting 6 15.6
2016-Sep-26 23:49 045 6 gusting 8 15.6
2016-Sep-26 23:44 045 4 gusting 5 15.6
2016-Sep-26 23:39 067 4 gusting 6 15.6
2016-Sep-26 23:34 045 5 gusting 9 15.6
2016-Sep-26 23:29 045 2 gusting 6 15.6
2016-Sep-26 23:24 15.6
2016-Sep-26 23:19 067 6 gusting 10 15.6
2016-Sep-26 23:14 15.0
2016-Sep-26 23:09 15.0
2016-Sep-26 23:04 090 1 gusting 2 15.0
2016-Sep-26 22:59 247 1 gusting 4 15.0
2016-Sep-26 22:54 270 1 gusting 2 15.6
2016-Sep-26 22:49 15.6
2016-Sep-26 22:44 090 2 gusting 4 15.6
2016-Sep-26 22:39 15.6
2016-Sep-26 22:34 15.6
2016-Sep-26 22:29 067 5 gusting 8 15.6
2016-Sep-26 22:24 045 5 gusting 11 15.6
2016-Sep-26 22:19 045 5 gusting 9 15.6
2016-Sep-26 22:14 045 5 gusting 9 15.6
2016-Sep-26 22:09 337 6 gusting 8 15.6
2016-Sep-26 22:04 022 6 gusting 11 15.6
2016-Sep-26 21:59 045 4 gusting 6 15.6
2016-Sep-26 21:54 15.6
2016-Sep-26 21:49 045 4 gusting 8 15.6
2016-Sep-26 21:44 15.6
2016-Sep-26 21:39 045 6 gusting 9 15.6
2016-Sep-26 21:34 090 5 gusting 7 16.1
2016-Sep-26 21:29 022 5 gusting 8 16.1
2016-Sep-26 21:24 045 5 gusting 6 16.1
2016-Sep-26 21:19 16.1
2016-Sep-26 21:14 022 4 gusting 8 16.1
2016-Sep-26 21:09 045 6 gusting 8 16.1
2016-Sep-26 21:04 045 4 gusting 6 16.1
2016-Sep-26 20:59 090 3 gusting 6 16.1
2016-Sep-26 20:54 045 6 gusting 10 16.1
2016-Sep-26 20:49 090 3 gusting 8 16.7
2016-Sep-26 20:44 022 5 gusting 11 16.7
2016-Sep-26 20:39 067 4 gusting 5 16.7
2016-Sep-26 20:34 045 6 gusting 9 16.7
2016-Sep-26 20:29 067 7 gusting 12 16.7
2016-Sep-26 20:24 112 6 gusting 10 16.7
2016-Sep-26 20:19 090 6 gusting 10 16.7
2016-Sep-26 20:14 045 5 gusting 7 16.7
2016-Sep-26 20:09 090 8 gusting 13 16.7
2016-Sep-26 20:04 045 3 gusting 6 16.7
2016-Sep-26 19:59 022 4 gusting 6 16.7
2016-Sep-26 19:54 337 6 gusting 10 16.7
2016-Sep-26 19:49 157 6 gusting 12 16.7
2016-Sep-26 19:44 090 2 gusting 8 16.7
2016-Sep-26 19:39 022 5 gusting 6 16.7
2016-Sep-26 19:34 045 5 gusting 8 16.7
2016-Sep-26 19:29 090 4 gusting 9 16.7
2016-Sep-26 19:24 045 5 gusting 9 16.7
2016-Sep-26 19:19 067 6 gusting 11 16.7
2016-Sep-26 19:14 337 5 gusting 8 16.7
2016-Sep-26 19:09 202 5 gusting 8 16.7
2016-Sep-26 19:04 045 4 gusting 9 16.7
2016-Sep-26 18:59 16.7
2016-Sep-26 18:54 067 4 gusting 9 16.7
2016-Sep-26 18:49 045 4 gusting 8 16.7
2016-Sep-26 18:44 090 4 gusting 6 16.7
2016-Sep-26 18:39 045 6 gusting 10 16.1
2016-Sep-26 18:34 022 3 gusting 6 16.1
2016-Sep-26 18:29 045 1 gusting 3 16.1
2016-Sep-26 18:24 315 1 gusting 5 16.1
2016-Sep-26 18:19 337 0 gusting 3 16.1
2016-Sep-26 18:14 112 0 gusting 1 15.6
2016-Sep-26 18:09 180 16.1
2016-Sep-26 18:04 225 1 gusting 3 16.1